Terminal Aerodrome Forecast
Issued by NWS

Home | Current Version | Previous Version | Text Only | Print | Product List | Glossary On
Versions: 1 2 3 4 5 6 7 8 9 10 11 12 13 14 15 16 17 18 19 20 21 22 23 24 25 26 27 28 29 30 31
000
FTUS46 KPQR 261130
TAFONP
TAF
KONP 261130Z 2612/2712 10006KT P6SM OVC120
     FM261600 15011KT P6SM SCT070 OVC100
     FM261900 19014G21KT P6SM -RA SCT030 OVC050
     FM270000 20009KT 6SM -RA BR BKN025 OVC050
     FM270600 VRB03KT 4SM BR SCT012 OVC025=

USA.gov is the U.S. government's official web portal to all federal, state and local government web resources and services.